This is the latest recevied weather packets stored in our database for station/object DH7LK-5. If no packets are shown the sender has not sent any weather packets the latest 10 day(s).
| Time | Temp. | Humidity | Pressure | Rain* | Wind** | Luminosity | Snow |
|---|---|---|---|---|---|---|---|
| 1777833810 | 22.78° C | 46% | 1009.6 hPa | 0.51 mm | - | - | - |
| 1777817593 | 28.89° C | 25% | 1010.5 hPa | 0.51 mm | - | - | - |
| 1777803185 | 27.78° C | 31% | 1012.4 hPa | 0 mm | - | - | - |
| 1777799580 | 25.56° C | 39% | 1012.9 hPa | 0 mm | - | - | - |
| 1777795978 | 23.33° C | 44% | 1013.1 hPa | 0 mm | - | - | - |
| 1777792377 | 20° C | 51% | 1013.1 hPa | 0 mm | - | - | - |
| 1777790576 | 18.33° C | 56% | 1013.3 hPa | 0 mm | - | - | - |
| 1777788775 | 16.67° C | 61% | 1013.2 hPa | 0 mm | - | - | - |
| 1777785174 | 13.33° C | 73% | 1013.3 hPa | 0 mm | - | - | - |
| 1777783373 | 11.67° C | 80% | 1013.2 hPa | 0 mm | - | - | - |
| 1777781571 | 11.11° C | 83% | 1013.2 hPa | 0 mm | - | - | - |
| 1777779770 | 11.11° C | 81% | 1013.3 hPa | 0 mm | - | - | - |
| 1777777969 | 11.67° C | 81% | 1013.2 hPa | 0 mm | - | - | - |
| 1777776169 | 12.22° C | 80% | 1013.3 hPa | 0 mm | - | - | - |
| 1777774368 | 12.78° C | 75% | 1013.4 hPa | 0 mm | - | - | - |
| 1777770766 | 12.78° C | 74% | 1013.7 hPa | 0 mm | - | - | - |
| 1777763559 | 13.89° C | 69% | 1014.6 hPa | 0 mm | - | - | - |
| 1777745336 | 23.89° C | 35% | - | 0.25 mm | - | - | - |
| 1777745149 | 26.11° C | 28% | - | 0.25 mm | - | - | - |
| 1777740464 | 25.56° C | 33% | - | 0.25 mm | - | - | - |
| 1777718892 | 25° C | 34% | - | 0.25 mm | - | - | - |
| 1777700184 | 11.67° C | 79% | - | 0.25 mm | - | - | - |
| 1777645698 | 23.33° C | 35% | - | 0 mm | - | - | - |
| 1777616600 | 15° C | 74% | - | 0 mm | - | - | - |
| 1777614779 | 12.78° C | 80% | - | 0 mm | - | - | - |
* Rain since midnight (hover to see other rain measurements)
** Current wind speed in m/s (hover to see current wind gust speed)